createdAt,value
2018-09-04T00:00:55.134Z,32.93
2018-09-04T00:03:21.361Z,31.83
2018-09-04T00:05:47.630Z,32.20
2018-09-04T00:08:13.869Z,33.50
2018-09-04T00:10:40.150Z,31.20
2018-09-04T00:13:06.458Z,31.93
2018-09-04T00:15:32.788Z,33.10
2018-09-04T00:17:59.041Z,36.00
2018-09-04T00:20:25.332Z,33.33
2018-09-04T00:22:51.627Z,34.37
2018-09-04T00:25:18.642Z,31.27
2018-09-04T00:27:44.941Z,30.00
2018-09-04T00:30:11.194Z,32.50
2018-09-04T00:32:37.423Z,32.90
2018-09-04T00:35:03.714Z,29.97
2018-09-04T00:37:29.994Z,32.07
2018-09-04T00:39:56.268Z,30.40
2018-09-04T00:42:22.562Z,31.50
2018-09-04T00:44:48.822Z,35.50
2018-09-04T00:47:15.803Z,39.43
2018-09-04T00:49:42.079Z,38.80
2018-09-04T00:52:08.317Z,35.67
2018-09-04T00:54:34.605Z,38.77
2018-09-04T00:57:01.553Z,37.60
2018-09-04T00:59:27.853Z,37.63
2018-09-04T01:01:54.147Z,39.20
2018-09-04T01:04:20.446Z,35.30
2018-09-04T01:06:46.726Z,38.03
2018-09-04T01:09:13.758Z,40.43
2018-09-04T01:11:39.995Z,39.33
2018-09-04T01:14:06.977Z,41.10
2018-09-04T01:16:33.239Z,40.83
2018-09-04T01:18:59.523Z,41.30
2018-09-04T01:21:25.764Z,41.30
2018-09-04T01:23:52.041Z,38.23
2018-09-04T01:26:18.298Z,42.20
2018-09-04T01:28:45.330Z,37.43
2018-09-04T01:31:11.573Z,39.50
2018-09-04T01:33:38.553Z,42.97
2018-09-04T01:36:04.833Z,42.03
2018-09-04T01:38:31.106Z,38.90
2018-09-04T01:40:57.398Z,43.13
2018-09-04T01:43:23.636Z,45.83
2018-09-04T01:45:49.917Z,44.23
2018-09-04T01:48:16.174Z,39.23
2018-09-04T01:50:42.418Z,39.93
2018-09-04T01:53:08.697Z,42.97
2018-09-04T01:55:34.942Z,41.33
2018-09-04T01:58:01.243Z,41.80
2018-09-04T02:00:28.249Z,38.40
2018-09-04T02:02:54.550Z,40.87
2018-09-04T02:05:20.790Z,45.47
2018-09-04T02:07:47.056Z,41.07
2018-09-04T02:10:13.330Z,40.57
2018-09-04T02:12:39.603Z,43.83
2018-09-04T02:15:05.910Z,47.57
2018-09-04T02:17:32.213Z,42.90
2018-09-04T02:19:58.497Z,41.73
2018-09-04T02:22:24.790Z,44.17
2018-09-04T02:24:51.033Z,46.20
2018-09-04T02:27:17.334Z,46.53
2018-09-04T02:29:44.341Z,43.47
2018-09-04T02:32:10.628Z,44.13
2018-09-04T02:34:36.876Z,40.23
2018-09-04T02:37:03.126Z,43.70
2018-09-04T02:39:29.420Z,40.67
2018-09-04T02:41:55.702Z,43.63
2018-09-04T02:44:21.969Z,41.80
2018-09-04T02:46:48.981Z,37.77
2018-09-04T02:49:15.240Z,43.77
2018-09-04T02:51:42.245Z,45.90
2018-09-04T02:54:08.557Z,44.70
2018-09-04T02:56:34.806Z,41.27
2018-09-04T02:59:01.074Z,42.80
2018-09-04T03:01:28.094Z,40.10
2018-09-04T03:03:54.381Z,41.10
2018-09-04T03:06:20.664Z,38.77
2018-09-04T03:08:46.922Z,41.40
2018-09-04T03:11:13.201Z,39.00
2018-09-04T03:13:39.570Z,39.73
2018-09-04T03:16:05.754Z,44.40
2018-09-04T03:18:32.067Z,39.63
2018-09-04T03:20:58.354Z,40.60
2018-09-04T03:23:24.612Z,39.00
2018-09-04T03:25:50.908Z,40.00
2018-09-04T03:28:17.145Z,40.37
2018-09-04T03:30:43.460Z,39.30
2018-09-04T03:33:09.739Z,42.00
2018-09-04T03:35:35.984Z,43.00
2018-09-04T03:38:02.249Z,40.17
2018-09-04T03:40:28.571Z,41.37
2018-09-04T03:42:54.837Z,37.40
2018-09-04T03:45:21.890Z,38.87
2018-09-04T03:47:48.886Z,39.40
2018-09-04T03:50:15.162Z,38.17
2018-09-04T03:52:41.439Z,40.70
2018-09-04T03:55:07.680Z,42.70
2018-09-04T03:57:33.960Z,38.83
2018-09-04T04:00:00.962Z,39.97
2018-09-04T04:02:27.251Z,40.60
2018-09-04T04:04:53.868Z,43.10
2018-09-04T04:07:20.180Z,43.17
2018-09-04T04:09:46.415Z,38.67
2018-09-04T04:12:12.716Z,43.80
2018-09-04T04:14:38.974Z,42.60
2018-09-04T04:17:05.239Z,46.37
2018-09-04T04:19:32.243Z,44.20
2018-09-04T04:21:58.473Z,48.43
2018-09-04T04:24:24.744Z,42.30
2018-09-04T04:26:51.832Z,42.03
2018-09-04T04:29:18.179Z,44.27
2018-09-04T04:31:44.439Z,48.87
2018-09-04T04:34:10.742Z,44.60
2018-09-04T04:36:36.989Z,44.47
2018-09-04T04:39:03.290Z,46.40
2018-09-04T04:41:29.542Z,45.37
2018-09-04T04:43:55.834Z,45.60
2018-09-04T04:46:22.086Z,46.27
2018-09-04T04:48:48.349Z,43.00
2018-09-04T04:51:14.629Z,45.50
2018-09-04T04:53:40.865Z,44.50
2018-09-04T04:56:07.150Z,47.90
2018-09-04T04:58:34.170Z,46.17
2018-09-04T05:01:01.320Z,48.50
2018-09-04T05:03:27.619Z,49.10
2018-09-04T05:05:53.890Z,48.97
2018-09-04T05:08:20.879Z,45.57
2018-09-04T05:10:47.477Z,47.80
2018-09-04T05:13:13.757Z,45.10
2018-09-04T05:15:40.227Z,45.17
2018-09-04T05:18:07.119Z,44.83
2018-09-04T05:20:33.454Z,43.53
2018-09-04T05:23:00.510Z,41.27
2018-09-04T05:25:26.808Z,40.80
2018-09-04T05:27:53.846Z,45.60
2018-09-04T05:30:20.146Z,42.20
2018-09-04T05:32:46.432Z,43.00
2018-09-04T05:35:14.804Z,44.47
2018-09-04T05:37:45.181Z,46.07
2018-09-04T05:40:12.918Z,52.13
2018-09-04T05:42:40.994Z,44.07
2018-09-04T05:45:07.346Z,42.97
2018-09-04T05:47:35.529Z,41.60
2018-09-04T05:50:04.064Z,38.40
2018-09-04T05:52:32.459Z,37.17
2018-09-04T05:54:58.786Z,38.23
2018-09-04T05:57:25.088Z,38.53
2018-09-04T05:59:52.200Z,40.27
2018-09-04T06:02:18.534Z,40.33
2018-09-04T06:04:46.836Z,40.10
2018-09-04T06:07:13.222Z,39.63
2018-09-04T06:09:39.463Z,36.40
2018-09-04T06:12:05.753Z,36.13
2018-09-04T06:14:32.024Z,32.13
2018-09-04T06:16:58.275Z,34.00
2018-09-04T06:19:24.539Z,35.13
2018-09-04T06:21:50.823Z,36.60
2018-09-04T06:24:17.067Z,40.13
2018-09-04T06:26:43.366Z,38.73
2018-09-04T06:29:09.630Z,35.30
2018-09-04T06:31:35.893Z,38.33
2018-09-04T06:34:02.259Z,39.27
2018-09-04T06:36:28.537Z,37.00
2018-09-04T06:38:54.773Z,38.30
2018-09-04T06:41:21.020Z,36.40
2018-09-04T06:43:47.259Z,35.03
2018-09-04T06:46:14.273Z,34.57
2018-09-04T06:48:40.534Z,36.43
2018-09-04T06:51:07.539Z,37.87
2018-09-04T06:53:33.822Z,39.13
2018-09-04T06:56:00.803Z,38.87
2018-09-04T06:58:27.071Z,36.70
2018-09-04T07:00:53.801Z,38.67
2018-09-04T07:03:20.062Z,33.57
2018-09-04T07:05:46.354Z,33.23
2018-09-04T07:08:12.657Z,34.80
2018-09-04T07:10:39.650Z,35.40
2018-09-04T07:13:05.905Z,35.80
2018-09-04T07:15:32.185Z,37.40
2018-09-04T07:17:58.464Z,37.93
2018-09-04T07:20:24.768Z,35.50
2018-09-04T07:22:51.042Z,34.10
2018-09-04T07:25:17.326Z,32.97
2018-09-04T07:27:43.594Z,34.67
2018-09-04T07:30:09.859Z,37.27
2018-09-04T07:32:36.128Z,38.20
2018-09-04T07:35:02.400Z,36.50
2018-09-04T07:37:28.654Z,36.77
2018-09-04T07:39:55.677Z,34.67
2018-09-04T07:42:21.946Z,32.20
2018-09-04T07:44:48.189Z,31.13
2018-09-04T07:47:14.502Z,30.10
2018-09-04T07:49:40.749Z,27.00
2018-09-04T07:52:06.999Z,25.93
2018-09-04T07:54:33.270Z,30.27
2018-09-04T07:57:00.294Z,31.83
2018-09-04T07:59:26.630Z,28.13
2018-09-04T08:01:52.908Z,30.97
2018-09-04T08:04:19.158Z,30.70
2018-09-04T08:06:45.430Z,30.03
2018-09-04T08:09:11.702Z,28.60
2018-09-04T08:11:37.977Z,28.53
2018-09-04T08:14:04.278Z,28.63
2018-09-04T08:16:30.615Z,25.00
2018-09-04T08:18:56.829Z,23.47
2018-09-04T08:21:23.082Z,25.40
2018-09-04T08:23:49.358Z,25.90
2018-09-04T08:26:15.642Z,27.27
2018-09-04T08:28:41.907Z,26.37
2018-09-04T08:31:08.149Z,26.00
2018-09-04T08:33:35.134Z,21.93
2018-09-04T08:36:01.404Z,25.80
2018-09-04T08:38:27.658Z,24.87
2018-09-04T08:40:54.670Z,25.90
2018-09-04T08:43:20.933Z,27.67
2018-09-04T08:45:47.958Z,28.73
2018-09-04T08:48:14.226Z,21.73
2018-09-04T08:50:40.591Z,21.70
2018-09-04T08:53:06.820Z,21.20
2018-09-04T08:55:33.074Z,22.00
2018-09-04T08:57:59.353Z,26.33
2018-09-04T09:00:25.637Z,23.37
2018-09-04T09:02:51.914Z,22.03
2018-09-04T09:05:18.199Z,23.20
2018-09-04T09:07:44.473Z,21.87
2018-09-04T09:10:10.823Z,20.90
2018-09-04T09:12:37.816Z,19.50
2018-09-04T09:15:04.133Z,20.07
2018-09-04T09:17:30.802Z,19.63
2018-09-04T09:19:58.550Z,18.10
2018-09-04T09:22:25.590Z,15.40
2018-09-04T09:24:52.631Z,16.77
2018-09-04T09:27:18.965Z,18.60
2018-09-04T09:29:45.276Z,18.60
2018-09-04T09:32:12.431Z,14.63
2018-09-04T09:34:39.587Z,18.87
2018-09-04T09:37:05.976Z,15.83
2018-09-04T09:39:32.189Z,17.50
2018-09-04T09:41:59.093Z,17.03
2018-09-04T09:44:25.657Z,16.40
2018-09-04T09:46:51.986Z,16.10
2018-09-04T09:49:18.298Z,18.27
2018-09-04T09:51:44.572Z,16.33
2018-09-04T09:54:10.866Z,14.23
2018-09-04T09:56:37.151Z,18.57
2018-09-04T09:59:03.517Z,16.03
2018-09-04T10:01:29.871Z,18.00
2018-09-04T10:03:56.252Z,16.33
2018-09-04T10:06:22.517Z,15.53
2018-09-04T10:08:48.827Z,15.83
2018-09-04T10:11:15.107Z,13.80
2018-09-04T10:13:41.410Z,15.80
2018-09-04T10:16:08.738Z,15.13
2018-09-04T10:18:35.218Z,14.30
2018-09-04T10:21:01.570Z,14.17
2018-09-04T10:23:28.635Z,14.43
2018-09-04T10:25:54.938Z,14.33
2018-09-04T10:28:21.234Z,11.80
2018-09-04T10:30:47.523Z,12.57
2018-09-04T10:33:13.924Z,12.77
2018-09-04T10:35:40.339Z,15.83
2018-09-04T10:38:06.653Z,13.30
2018-09-04T10:40:36.014Z,15.03
2018-09-04T10:43:02.445Z,11.90
2018-09-04T10:45:28.829Z,12.60
2018-09-04T10:47:55.287Z,15.40
2018-09-04T10:50:21.541Z,11.23
2018-09-04T10:52:47.853Z,11.67
2018-09-04T10:55:14.225Z,11.83
2018-09-04T10:57:40.542Z,11.33
2018-09-04T11:00:06.940Z,11.83
2018-09-04T11:02:33.245Z,12.30
2018-09-04T11:04:59.646Z,12.97
2018-09-04T11:07:26.638Z,14.37
2018-09-04T11:09:53.134Z,10.57
2018-09-04T11:12:19.288Z,10.10
2018-09-04T11:14:45.660Z,9.60
2018-09-04T11:17:12.008Z,11.47
2018-09-04T11:19:38.326Z,11.70
2018-09-04T11:22:04.666Z,11.30
2018-09-04T11:24:31.012Z,11.10
2018-09-04T11:26:57.324Z,12.03
2018-09-04T11:29:23.750Z,10.70
2018-09-04T11:31:50.044Z,15.03
2018-09-04T11:34:16.310Z,11.40
2018-09-04T11:36:42.568Z,11.80
2018-09-04T11:39:08.883Z,10.17
2018-09-04T11:41:35.168Z,10.30
2018-09-04T11:44:01.656Z,11.07
2018-09-04T11:46:27.910Z,10.37
2018-09-04T11:48:54.925Z,10.77
2018-09-04T11:51:21.213Z,10.97
2018-09-04T11:53:47.484Z,13.10
2018-09-04T11:56:13.750Z,11.60
2018-09-04T11:58:40.786Z,10.93
2018-09-04T12:01:10.803Z,11.20
2018-09-04T12:03:37.945Z,10.70
2018-09-04T12:06:04.918Z,11.20
2018-09-04T12:08:31.911Z,11.00
2018-09-04T12:10:59.547Z,10.80
2018-09-04T12:13:26.542Z,10.00
2018-09-04T12:15:54.338Z,13.07
2018-09-04T12:18:21.316Z,13.50
2018-09-04T12:20:49.073Z,13.20
2018-09-04T12:23:16.863Z,13.17
2018-09-04T12:25:44.807Z,12.53
2018-09-04T12:28:12.747Z,12.60
2018-09-04T12:30:39.560Z,12.60
2018-09-04T12:33:06.403Z,13.27
2018-09-04T12:35:33.878Z,12.07
2018-09-04T12:38:00.893Z,12.30
2018-09-04T12:40:27.980Z,10.97
2018-09-04T12:42:54.239Z,13.70
2018-09-04T12:45:20.498Z,14.23
2018-09-04T12:47:46.770Z,13.10
2018-09-04T12:50:13.059Z,14.40
2018-09-04T12:52:39.304Z,15.03
2018-09-04T12:55:05.594Z,14.23
2018-09-04T12:57:31.873Z,14.30
2018-09-04T12:59:58.205Z,13.27
2018-09-04T13:02:24.482Z,14.23
2018-09-04T13:04:50.729Z,13.20
2018-09-04T13:07:16.998Z,13.83
2018-09-04T13:09:43.238Z,13.80
2018-09-04T13:12:09.521Z,14.87
2018-09-04T13:14:35.862Z,14.60
2018-09-04T13:17:02.875Z,15.30
2018-09-04T13:19:29.934Z,14.40
2018-09-04T13:21:56.230Z,13.87
2018-09-04T13:24:22.487Z,16.00
2018-09-04T13:26:49.461Z,14.23
2018-09-04T13:29:15.722Z,16.93
2018-09-04T13:31:41.968Z,13.57
2018-09-04T13:34:08.247Z,14.80
2018-09-04T13:36:34.586Z,14.57
2018-09-04T13:39:01.527Z,12.97
2018-09-04T13:41:27.818Z,14.07
2018-09-04T13:43:54.856Z,15.33
2018-09-04T13:46:21.106Z,14.37
2018-09-04T13:48:48.151Z,15.03
2018-09-04T13:51:14.413Z,15.80
2018-09-04T13:53:40.675Z,14.50
2018-09-04T13:56:06.961Z,14.00
2018-09-04T13:58:33.245Z,13.73
2018-09-04T14:00:59.522Z,14.13
2018-09-04T14:03:25.834Z,15.13
2018-09-04T14:05:52.077Z,13.20
2018-09-04T14:08:18.318Z,13.30
2018-09-04T14:10:44.599Z,13.97
2018-09-04T14:13:10.882Z,13.77
2018-09-04T14:15:37.186Z,14.67
2018-09-04T14:18:03.494Z,14.50
2018-09-04T14:20:29.749Z,13.80
2018-09-04T14:22:56.772Z,14.90
2018-09-04T14:25:23.085Z,14.77
2018-09-04T14:27:49.329Z,13.77
2018-09-04T14:30:16.143Z,14.50
2018-09-04T14:32:42.599Z,16.20
2018-09-04T14:35:08.914Z,14.23
2018-09-04T14:37:35.159Z,14.17
2018-09-04T14:40:01.942Z,15.03
2018-09-04T14:42:28.962Z,14.87
2018-09-04T14:44:55.996Z,14.73
2018-09-04T14:47:23.328Z,15.67
2018-09-04T14:49:50.656Z,14.60
2018-09-04T14:52:17.676Z,15.13
2018-09-04T14:54:45.177Z,14.93
2018-09-04T14:57:12.768Z,15.20
2018-09-04T14:59:39.044Z,17.27
2018-09-04T15:02:07.024Z,15.17
2018-09-04T15:04:36.238Z,14.47
2018-09-04T15:07:04.876Z,14.63
2018-09-04T15:09:32.200Z,14.53
2018-09-04T15:11:59.285Z,15.60
2018-09-04T15:14:26.434Z,14.07
2018-09-04T15:16:53.924Z,14.33
2018-09-04T15:19:21.644Z,13.20
2018-09-04T15:21:47.945Z,14.70
2018-09-04T15:24:14.561Z,15.27
2018-09-04T15:26:40.851Z,15.27
2018-09-04T15:29:07.746Z,15.30
2018-09-04T15:31:35.545Z,15.23
2018-09-04T15:34:07.956Z,15.73
2018-09-04T15:36:34.332Z,14.43
2018-09-04T15:39:01.116Z,16.23
2018-09-04T15:41:27.603Z,15.00
2018-09-04T15:43:58.468Z,15.53
2018-09-04T15:46:24.798Z,14.23
2018-09-04T15:48:51.196Z,14.07
2018-09-04T15:51:17.446Z,14.63
2018-09-04T15:53:44.394Z,14.57
2018-09-04T15:56:11.474Z,15.40
2018-09-04T15:58:37.715Z,16.30
2018-09-04T16:01:04.785Z,15.33
2018-09-04T16:03:31.379Z,15.97
2018-09-04T16:05:58.557Z,15.60
2018-09-04T16:08:25.256Z,15.40
2018-09-04T16:10:55.827Z,15.57
2018-09-04T16:13:22.165Z,15.77
2018-09-04T16:16:01.024Z,15.13
2018-09-04T16:18:27.541Z,16.40
2018-09-04T16:20:55.516Z,15.50
2018-09-04T16:23:21.799Z,16.07
2018-09-04T16:25:49.999Z,17.10
2018-09-04T16:28:17.226Z,14.87
2018-09-04T16:30:44.335Z,15.73
2018-09-04T16:33:11.920Z,23.63
2018-09-04T16:35:39.244Z,16.10
2018-09-04T16:38:05.646Z,14.87
2018-09-04T16:40:33.466Z,16.20
2018-09-04T16:43:01.432Z,15.97
2018-09-04T16:45:28.894Z,15.87
2018-09-04T16:47:55.263Z,15.93
2018-09-04T16:50:26.725Z,15.93
2018-09-04T16:52:54.584Z,15.97
2018-09-04T16:55:25.227Z,16.57
2018-09-04T16:57:51.598Z,14.50
2018-09-04T17:00:19.621Z,15.33
2018-09-04T17:02:47.850Z,14.50
2018-09-04T17:05:15.199Z,15.87
2018-09-04T17:07:42.784Z,16.30
2018-09-04T17:10:09.568Z,17.30
2018-09-04T17:12:36.984Z,17.97
2018-09-04T17:15:03.874Z,18.13
2018-09-04T17:17:30.663Z,18.07
2018-09-04T17:19:59.518Z,16.87
2018-09-04T17:22:25.852Z,14.87
2018-09-04T17:24:53.569Z,14.80
2018-09-04T17:27:24.515Z,14.80
2018-09-04T17:29:51.602Z,16.23
2018-09-04T17:32:19.830Z,13.37
2018-09-04T17:34:48.107Z,13.30
2018-09-04T17:37:14.384Z,13.53
2018-09-04T17:39:40.637Z,13.07
2018-09-04T17:42:06.931Z,13.33
2018-09-04T17:44:33.182Z,13.40
2018-09-04T17:47:00.410Z,14.70
2018-09-04T17:49:29.996Z,12.27
2018-09-04T17:51:56.357Z,12.60
2018-09-04T17:54:23.251Z,12.10
2018-09-04T17:56:49.572Z,11.80
2018-09-04T17:59:18.343Z,13.50
2018-09-04T18:01:44.678Z,13.10
2018-09-04T18:04:11.715Z,12.50
2018-09-04T18:06:38.861Z,11.70
2018-09-04T18:09:05.156Z,12.30
2018-09-04T18:11:32.355Z,12.23
2018-09-04T18:14:04.695Z,11.50
2018-09-04T18:16:31.037Z,12.60
2018-09-04T18:18:57.344Z,11.60
2018-09-04T18:21:23.633Z,12.37
2018-09-04T18:23:49.931Z,11.07
2018-09-04T18:26:18.247Z,11.97
2018-09-04T18:28:45.480Z,10.80
2018-09-04T18:31:12.647Z,11.53
2018-09-04T18:33:41.145Z,12.27
2018-09-04T18:36:08.231Z,11.80
2018-09-04T18:38:34.604Z,12.33
2018-09-04T18:41:01.630Z,11.70
2018-09-04T18:43:27.928Z,12.53
2018-09-04T18:45:54.296Z,12.47
2018-09-04T18:48:20.699Z,12.63
2018-09-04T18:50:47.804Z,12.63
2018-09-04T18:53:14.118Z,12.90
2018-09-04T18:55:41.121Z,12.47
2018-09-04T18:58:07.378Z,12.53
2018-09-04T19:00:33.677Z,12.60
2018-09-04T19:02:59.976Z,12.70
2018-09-04T19:05:26.310Z,16.73
2018-09-04T19:07:52.623Z,19.63
2018-09-04T19:10:18.910Z,18.63
2018-09-04T19:12:45.195Z,12.90
2018-09-04T19:15:12.264Z,12.00
2018-09-04T19:17:38.582Z,13.90
2018-09-04T19:20:04.909Z,18.60
2018-09-04T19:22:31.218Z,16.00
2018-09-04T19:24:57.591Z,16.40
2018-09-04T19:27:23.896Z,18.37
2018-09-04T19:29:50.162Z,14.50
2018-09-04T19:32:16.555Z,13.90
2018-09-04T19:34:43.701Z,13.37
2018-09-04T19:37:10.753Z,13.87
2018-09-04T19:39:39.463Z,16.20
2018-09-04T19:42:06.773Z,13.03
2018-09-04T19:44:36.160Z,12.70
2018-09-04T19:47:04.874Z,13.07
2018-09-04T19:49:32.290Z,12.27
2018-09-04T19:51:58.842Z,22.87
2018-09-04T19:54:25.216Z,12.50
2018-09-04T19:56:51.523Z,13.63
2018-09-04T19:59:17.831Z,13.23
2018-09-04T20:01:44.168Z,12.90
2018-09-04T20:04:10.466Z,13.03
2018-09-04T20:06:37.536Z,13.37
2018-09-04T20:09:04.546Z,12.67
2018-09-04T20:11:30.834Z,14.57
2018-09-04T20:13:57.102Z,14.33
2018-09-04T20:16:23.393Z,15.10
2018-09-04T20:18:49.692Z,15.83
2018-09-04T20:21:16.769Z,13.90
2018-09-04T20:23:43.054Z,13.97
2018-09-04T20:26:09.297Z,13.90
2018-09-04T20:28:36.266Z,14.73
2018-09-04T20:31:02.617Z,13.70
2018-09-04T20:33:28.895Z,16.03
2018-09-04T20:35:55.217Z,14.67
2018-09-04T20:38:21.517Z,16.50
2018-09-04T20:40:47.774Z,15.57
2018-09-04T20:43:14.046Z,17.57
2018-09-04T20:45:41.041Z,17.30
2018-09-04T20:48:07.330Z,18.30
2018-09-04T20:50:34.329Z,17.83
2018-09-04T20:53:01.921Z,16.83
2018-09-04T20:55:35.086Z,17.90
2018-09-04T20:58:13.828Z,16.40
2018-09-04T21:00:52.669Z,17.80
2018-09-04T21:03:31.926Z,16.20
2018-09-04T21:06:10.607Z,15.80
2018-09-04T21:08:36.963Z,15.60
2018-09-04T21:11:04.090Z,15.10
2018-09-04T21:13:30.364Z,15.53
2018-09-04T21:15:56.786Z,16.10
2018-09-04T21:18:23.171Z,15.83
2018-09-04T21:20:50.316Z,23.67
2018-09-04T21:23:16.966Z,19.10
2018-09-04T21:25:43.228Z,14.97
2018-09-04T21:28:10.245Z,14.43
2018-09-04T21:30:36.497Z,14.10
2018-09-04T21:33:03.516Z,13.80
2018-09-04T21:35:29.814Z,15.50
2018-09-04T21:37:56.110Z,15.37
2018-09-04T21:40:23.130Z,14.30
2018-09-04T21:42:49.389Z,14.63
2018-09-04T21:45:16.398Z,14.00
2018-09-04T21:47:42.660Z,13.93
2018-09-04T21:50:09.710Z,15.23
2018-09-04T21:52:35.957Z,15.10
2018-09-04T21:55:02.253Z,14.00
2018-09-04T21:57:28.502Z,14.50
2018-09-04T21:59:55.549Z,14.80
2018-09-04T22:02:22.545Z,14.30
2018-09-04T22:04:48.819Z,14.60
2018-09-04T22:07:15.134Z,15.70
2018-09-04T22:09:41.430Z,15.60
2018-09-04T22:12:07.702Z,14.30
2018-09-04T22:14:33.955Z,15.80
2018-09-04T22:17:00.974Z,14.90
2018-09-04T22:19:27.257Z,16.03
2018-09-04T22:21:53.518Z,15.13
2018-09-04T22:24:21.150Z,14.87
2018-09-04T22:26:48.176Z,16.07
2018-09-04T22:29:16.492Z,15.90
2018-09-04T22:31:44.165Z,15.63
2018-09-04T22:34:10.517Z,16.50
2018-09-04T22:36:36.764Z,17.13
2018-09-04T22:39:03.120Z,16.77
2018-09-04T22:41:29.429Z,18.60
2018-09-04T22:43:55.677Z,19.90
2018-09-04T22:46:21.949Z,18.53
2018-09-04T22:48:48.227Z,19.97
2018-09-04T22:51:20.709Z,17.53
2018-09-04T22:53:46.989Z,18.93
2018-09-04T22:56:13.273Z,19.30
2018-09-04T22:58:39.537Z,17.30
2018-09-04T23:01:06.522Z,17.77
2018-09-04T23:03:32.779Z,16.40
2018-09-04T23:05:59.057Z,16.10
2018-09-04T23:08:25.338Z,16.90
2018-09-04T23:10:51.666Z,18.10
2018-09-04T23:13:17.921Z,17.53
2018-09-04T23:15:44.206Z,15.50
2018-09-04T23:18:10.458Z,15.97
2018-09-04T23:20:36.763Z,14.63
2018-09-04T23:23:03.039Z,16.37
2018-09-04T23:25:29.529Z,15.87
2018-09-04T23:27:55.798Z,17.20
2018-09-04T23:30:22.050Z,17.57
2018-09-04T23:32:49.090Z,16.60
2018-09-04T23:35:16.092Z,15.60
2018-09-04T23:37:42.387Z,16.27
2018-09-04T23:40:09.419Z,16.57
2018-09-04T23:42:36.439Z,16.13
2018-09-04T23:45:02.730Z,15.27
2018-09-04T23:47:29.010Z,18.03
2018-09-04T23:49:55.328Z,16.80
2018-09-04T23:52:21.591Z,16.80
2018-09-04T23:54:47.856Z,18.33
2018-09-04T23:57:14.129Z,17.40
2018-09-04T23:59:40.400Z,17.47
